sensor_id;sensor_type;location;lat;lon;timestamp;P1;durP1;ratioP1;P2;durP2;ratioP2
12122;SDS011;6125;59.628;17.852;2022-12-24T00:01:53;2.60;;;1.50;;
12122;SDS011;6125;59.628;17.852;2022-12-24T00:04:21;2.40;;;1.40;;
12122;SDS011;6125;59.628;17.852;2022-12-24T00:06:48;1.83;;;1.60;;
12122;SDS011;6125;59.628;17.852;2022-12-24T00:09:15;2.13;;;1.27;;
12122;SDS011;6125;59.628;17.852;2022-12-24T00:11:42;3.60;;;1.50;;
12122;SDS011;6125;59.628;17.852;2022-12-24T00:14:09;5.47;;;1.90;;
12122;SDS011;6125;59.628;17.852;2022-12-24T00:16:36;2.60;;;1.77;;
12122;SDS011;6125;59.628;17.852;2022-12-24T00:19:03;2.10;;;1.10;;
12122;SDS011;6125;59.628;17.852;2022-12-24T00:21:32;2.70;;;1.43;;
12122;SDS011;6125;59.628;17.852;2022-12-24T00:23:59;2.00;;;1.43;;
12122;SDS011;6125;59.628;17.852;2022-12-24T00:26:28;3.07;;;1.30;;
12122;SDS011;6125;59.628;17.852;2022-12-24T00:28:55;2.37;;;1.20;;
12122;SDS011;6125;59.628;17.852;2022-12-24T00:31:22;4.20;;;1.47;;
12122;SDS011;6125;59.628;17.852;2022-12-24T00:33:49;1.60;;;1.47;;
12122;SDS011;6125;59.628;17.852;2022-12-24T00:36:18;2.73;;;1.17;;
12122;SDS011;6125;59.628;17.852;2022-12-24T00:38:47;4.73;;;1.53;;
12122;SDS011;6125;59.628;17.852;2022-12-24T00:41:14;2.20;;;1.33;;
12122;SDS011;6125;59.628;17.852;2022-12-24T00:43:52;1.60;;;0.97;;
12122;SDS011;6125;59.628;17.852;2022-12-24T00:46:21;2.27;;;1.30;;
12122;SDS011;6125;59.628;17.852;2022-12-24T00:48:48;1.63;;;1.37;;
12122;SDS011;6125;59.628;17.852;2022-12-24T00:51:16;1.97;;;1.30;;
12122;SDS011;6125;59.628;17.852;2022-12-24T00:53:46;2.63;;;1.30;;
12122;SDS011;6125;59.628;17.852;2022-12-24T00:56:13;1.93;;;1.20;;
12122;SDS011;6125;59.628;17.852;2022-12-24T00:58:40;3.37;;;1.67;;
12122;SDS011;6125;59.628;17.852;2022-12-24T01:01:07;2.40;;;1.23;;
12122;SDS011;6125;59.628;17.852;2022-12-24T01:03:35;2.23;;;1.37;;
12122;SDS011;6125;59.628;17.852;2022-12-24T01:06:02;2.27;;;1.27;;
12122;SDS011;6125;59.628;17.852;2022-12-24T01:08:29;1.33;;;1.13;;
12122;SDS011;6125;59.628;17.852;2022-12-24T01:10:59;0.90;;;0.90;;
12122;SDS011;6125;59.628;17.852;2022-12-24T01:13:27;1.67;;;1.20;;
12122;SDS011;6125;59.628;17.852;2022-12-24T01:15:56;2.37;;;1.60;;
12122;SDS011;6125;59.628;17.852;2022-12-24T01:18:23;2.53;;;1.23;;
12122;SDS011;6125;59.628;17.852;2022-12-24T01:20:54;1.67;;;1.20;;
12122;SDS011;6125;59.628;17.852;2022-12-24T01:23:22;2.23;;;1.70;;
12122;SDS011;6125;59.628;17.852;2022-12-24T01:25:51;1.63;;;1.17;;
12122;SDS011;6125;59.628;17.852;2022-12-24T01:28:19;2.40;;;1.50;;
12122;SDS011;6125;59.628;17.852;2022-12-24T01:30:47;1.83;;;1.50;;
12122;SDS011;6125;59.628;17.852;2022-12-24T01:33:14;2.20;;;1.13;;
12122;SDS011;6125;59.628;17.852;2022-12-24T01:35:41;2.17;;;1.30;;
12122;SDS011;6125;59.628;17.852;2022-12-24T01:38:09;1.17;;;1.07;;
12122;SDS011;6125;59.628;17.852;2022-12-24T01:40:37;1.93;;;1.10;;
12122;SDS011;6125;59.628;17.852;2022-12-24T01:43:24;3.70;;;1.47;;
12122;SDS011;6125;59.628;17.852;2022-12-24T01:45:53;3.03;;;1.20;;
12122;SDS011;6125;59.628;17.852;2022-12-24T01:48:23;3.50;;;1.10;;
12122;SDS011;6125;59.628;17.852;2022-12-24T01:50:58;1.87;;;1.10;;
12122;SDS011;6125;59.628;17.852;2022-12-24T01:53:28;4.10;;;1.10;;
12122;SDS011;6125;59.628;17.852;2022-12-24T01:55:57;1.93;;;1.40;;
12122;SDS011;6125;59.628;17.852;2022-12-24T01:58:26;2.70;;;1.50;;
12122;SDS011;6125;59.628;17.852;2022-12-24T02:00:53;2.17;;;1.40;;
12122;SDS011;6125;59.628;17.852;2022-12-24T02:03:20;1.47;;;0.87;;
12122;SDS011;6125;59.628;17.852;2022-12-24T02:05:48;1.23;;;1.10;;
12122;SDS011;6125;59.628;17.852;2022-12-24T02:08:18;1.83;;;1.17;;
12122;SDS011;6125;59.628;17.852;2022-12-24T02:10:45;4.20;;;1.20;;
12122;SDS011;6125;59.628;17.852;2022-12-24T02:13:13;1.07;;;0.93;;
12122;SDS011;6125;59.628;17.852;2022-12-24T02:15:50;2.70;;;1.37;;
12122;SDS011;6125;59.628;17.852;2022-12-24T02:18:29;2.63;;;1.30;;
12122;SDS011;6125;59.628;17.852;2022-12-24T02:24:01;4.50;;;1.37;;
12122;SDS011;6125;59.628;17.852;2022-12-24T02:27:00;2.43;;;1.53;;
12122;SDS011;6125;59.628;17.852;2022-12-24T02:32:54;3.43;;;1.30;;
12122;SDS011;6125;59.628;17.852;2022-12-24T02:35:41;1.33;;;1.20;;
12122;SDS011;6125;59.628;17.852;2022-12-24T02:38:15;2.07;;;1.40;;
12122;SDS011;6125;59.628;17.852;2022-12-24T02:40:48;1.53;;;1.10;;
12122;SDS011;6125;59.628;17.852;2022-12-24T02:43:18;0.93;;;0.87;;
12122;SDS011;6125;59.628;17.852;2022-12-24T02:45:50;4.33;;;1.00;;
12122;SDS011;6125;59.628;17.852;2022-12-24T02:48:21;1.97;;;1.23;;
12122;SDS011;6125;59.628;17.852;2022-12-24T02:50:55;2.67;;;1.23;;
12122;SDS011;6125;59.628;17.852;2022-12-24T02:53:22;1.23;;;1.13;;
12122;SDS011;6125;59.628;17.852;2022-12-24T02:55:52;1.10;;;1.00;;
12122;SDS011;6125;59.628;17.852;2022-12-24T02:58:38;1.83;;;1.20;;
12122;SDS011;6125;59.628;17.852;2022-12-24T03:01:16;3.87;;;1.23;;
12122;SDS011;6125;59.628;17.852;2022-12-24T03:03:59;1.80;;;1.10;;
12122;SDS011;6125;59.628;17.852;2022-12-24T03:06:33;0.97;;;0.97;;
12122;SDS011;6125;59.628;17.852;2022-12-24T03:09:12;2.40;;;1.03;;
12122;SDS011;6125;59.628;17.852;2022-12-24T03:11:45;2.70;;;1.57;;
12122;SDS011;6125;59.628;17.852;2022-12-24T03:14:19;1.50;;;1.00;;
12122;SDS011;6125;59.628;17.852;2022-12-24T03:16:48;3.07;;;1.00;;
12122;SDS011;6125;59.628;17.852;2022-12-24T03:19:16;1.23;;;1.07;;
12122;SDS011;6125;59.628;17.852;2022-12-24T03:21:45;1.27;;;1.03;;
12122;SDS011;6125;59.628;17.852;2022-12-24T03:24:15;1.60;;;1.17;;
12122;SDS011;6125;59.628;17.852;2022-12-24T03:26:43;1.93;;;1.40;;
12122;SDS011;6125;59.628;17.852;2022-12-24T03:29:11;1.93;;;1.20;;
12122;SDS011;6125;59.628;17.852;2022-12-24T03:31:39;1.77;;;1.30;;
12122;SDS011;6125;59.628;17.852;2022-12-24T03:34:07;1.47;;;1.10;;
12122;SDS011;6125;59.628;17.852;2022-12-24T03:36:36;1.17;;;0.87;;
12122;SDS011;6125;59.628;17.852;2022-12-24T03:39:03;1.77;;;1.20;;
12122;SDS011;6125;59.628;17.852;2022-12-24T03:41:31;0.80;;;0.80;;
12122;SDS011;6125;59.628;17.852;2022-12-24T03:43:58;0.97;;;0.97;;
12122;SDS011;6125;59.628;17.852;2022-12-24T03:46:25;1.70;;;0.97;;
12122;SDS011;6125;59.628;17.852;2022-12-24T03:48:52;2.13;;;1.10;;
12122;SDS011;6125;59.628;17.852;2022-12-24T03:51:20;2.73;;;1.20;;
12122;SDS011;6125;59.628;17.852;2022-12-24T03:53:50;1.20;;;1.10;;
12122;SDS011;6125;59.628;17.852;2022-12-24T03:56:17;1.77;;;1.10;;
12122;SDS011;6125;59.628;17.852;2022-12-24T03:58:45;3.17;;;1.47;;
12122;SDS011;6125;59.628;17.852;2022-12-24T04:01:12;1.43;;;1.10;;
12122;SDS011;6125;59.628;17.852;2022-12-24T04:03:39;4.43;;;1.00;;
12122;SDS011;6125;59.628;17.852;2022-12-24T04:06:08;0.90;;;0.90;;
12122;SDS011;6125;59.628;17.852;2022-12-24T04:08:37;2.93;;;1.03;;
12122;SDS011;6125;59.628;17.852;2022-12-24T04:11:06;3.00;;;1.23;;
12122;SDS011;6125;59.628;17.852;2022-12-24T04:13:34;2.83;;;1.17;;
12122;SDS011;6125;59.628;17.852;2022-12-24T04:16:02;2.27;;;1.10;;
12122;SDS011;6125;59.628;17.852;2022-12-24T04:18:31;1.30;;;1.20;;
12122;SDS011;6125;59.628;17.852;2022-12-24T04:20:59;2.77;;;1.27;;
12122;SDS011;6125;59.628;17.852;2022-12-24T04:23:26;2.83;;;1.33;;
12122;SDS011;6125;59.628;17.852;2022-12-24T04:25:55;1.40;;;0.93;;
12122;SDS011;6125;59.628;17.852;2022-12-24T04:28:25;1.90;;;0.90;;
12122;SDS011;6125;59.628;17.852;2022-12-24T04:30:56;0.80;;;0.80;;
12122;SDS011;6125;59.628;17.852;2022-12-24T04:33:24;2.20;;;1.20;;
12122;SDS011;6125;59.628;17.852;2022-12-24T04:35:51;1.50;;;1.07;;
12122;SDS011;6125;59.628;17.852;2022-12-24T04:38:20;1.70;;;1.13;;
12122;SDS011;6125;59.628;17.852;2022-12-24T04:40:47;2.30;;;1.20;;
12122;SDS011;6125;59.628;17.852;2022-12-24T04:43:14;1.47;;;1.30;;
12122;SDS011;6125;59.628;17.852;2022-12-24T04:45:42;2.30;;;1.30;;
12122;SDS011;6125;59.628;17.852;2022-12-24T04:48:11;1.43;;;1.00;;
12122;SDS011;6125;59.628;17.852;2022-12-24T04:50:38;1.30;;;0.87;;
12122;SDS011;6125;59.628;17.852;2022-12-24T04:53:05;2.20;;;1.30;;
12122;SDS011;6125;59.628;17.852;2022-12-24T04:55:33;2.83;;;1.20;;
12122;SDS011;6125;59.628;17.852;2022-12-24T04:58:00;1.03;;;1.00;;
12122;SDS011;6125;59.628;17.852;2022-12-24T05:00:27;2.10;;;1.30;;
12122;SDS011;6125;59.628;17.852;2022-12-24T05:02:56;1.03;;;1.00;;
12122;SDS011;6125;59.628;17.852;2022-12-24T05:05:23;2.30;;;1.03;;
12122;SDS011;6125;59.628;17.852;2022-12-24T05:07:50;1.10;;;1.00;;
12122;SDS011;6125;59.628;17.852;2022-12-24T05:10:18;1.50;;;0.83;;
12122;SDS011;6125;59.628;17.852;2022-12-24T05:12:45;1.10;;;1.00;;
12122;SDS011;6125;59.628;17.852;2022-12-24T05:15:12;1.20;;;1.10;;
12122;SDS011;6125;59.628;17.852;2022-12-24T05:17:39;1.30;;;0.93;;
12122;SDS011;6125;59.628;17.852;2022-12-24T05:20:08;3.70;;;1.20;;
12122;SDS011;6125;59.628;17.852;2022-12-24T05:22:35;1.83;;;1.00;;
12122;SDS011;6125;59.628;17.852;2022-12-24T05:25:20;1.03;;;1.00;;
12122;SDS011;6125;59.628;17.852;2022-12-24T05:28:04;2.23;;;1.23;;
12122;SDS011;6125;59.628;17.852;2022-12-24T05:30:31;2.77;;;1.00;;
12122;SDS011;6125;59.628;17.852;2022-12-24T05:32:58;2.13;;;1.10;;
12122;SDS011;6125;59.628;17.852;2022-12-24T05:35:27;1.63;;;1.10;;
12122;SDS011;6125;59.628;17.852;2022-12-24T05:37:56;1.33;;;1.10;;
12122;SDS011;6125;59.628;17.852;2022-12-24T05:40:23;2.20;;;1.63;;
12122;SDS011;6125;59.628;17.852;2022-12-24T05:42:50;3.93;;;1.80;;
12122;SDS011;6125;59.628;17.852;2022-12-24T05:45:17;1.37;;;1.20;;
12122;SDS011;6125;59.628;17.852;2022-12-24T05:47:44;1.90;;;1.57;;
12122;SDS011;6125;59.628;17.852;2022-12-24T05:50:11;2.83;;;1.90;;
12122;SDS011;6125;59.628;17.852;2022-12-24T05:52:39;1.87;;;1.67;;
12122;SDS011;6125;59.628;17.852;2022-12-24T05:55:07;2.43;;;1.53;;
12122;SDS011;6125;59.628;17.852;2022-12-24T05:57:34;1.80;;;1.40;;
12122;SDS011;6125;59.628;17.852;2022-12-24T06:00:02;2.33;;;1.73;;
12122;SDS011;6125;59.628;17.852;2022-12-24T06:02:30;1.30;;;1.20;;
12122;SDS011;6125;59.628;17.852;2022-12-24T06:04:57;4.37;;;1.90;;
12122;SDS011;6125;59.628;17.852;2022-12-24T06:07:24;1.43;;;1.20;;
12122;SDS011;6125;59.628;17.852;2022-12-24T06:09:53;2.43;;;1.40;;
12122;SDS011;6125;59.628;17.852;2022-12-24T06:12:22;2.60;;;1.60;;
12122;SDS011;6125;59.628;17.852;2022-12-24T06:14:51;1.33;;;1.10;;
12122;SDS011;6125;59.628;17.852;2022-12-24T06:17:24;1.87;;;1.37;;
12122;SDS011;6125;59.628;17.852;2022-12-24T06:19:51;7.07;;;1.20;;
12122;SDS011;6125;59.628;17.852;2022-12-24T06:22:24;1.60;;;1.20;;
12122;SDS011;6125;59.628;17.852;2022-12-24T06:24:52;1.73;;;1.30;;
12122;SDS011;6125;59.628;17.852;2022-12-24T06:27:19;2.67;;;1.07;;
12122;SDS011;6125;59.628;17.852;2022-12-24T06:29:47;2.83;;;1.27;;
12122;SDS011;6125;59.628;17.852;2022-12-24T06:32:14;1.87;;;1.10;;
12122;SDS011;6125;59.628;17.852;2022-12-24T06:34:41;2.07;;;1.30;;
12122;SDS011;6125;59.628;17.852;2022-12-24T06:37:09;1.60;;;1.20;;
12122;SDS011;6125;59.628;17.852;2022-12-24T06:39:45;3.00;;;0.97;;
12122;SDS011;6125;59.628;17.852;2022-12-24T06:42:16;2.40;;;1.70;;
12122;SDS011;6125;59.628;17.852;2022-12-24T06:44:50;4.33;;;1.40;;
12122;SDS011;6125;59.628;17.852;2022-12-24T06:47:22;4.17;;;2.40;;
12122;SDS011;6125;59.628;17.852;2022-12-24T06:49:49;2.63;;;1.87;;
12122;SDS011;6125;59.628;17.852;2022-12-24T06:52:19;2.80;;;1.87;;
12122;SDS011;6125;59.628;17.852;2022-12-24T06:54:46;3.20;;;2.40;;
12122;SDS011;6125;59.628;17.852;2022-12-24T06:57:13;3.70;;;2.00;;
12122;SDS011;6125;59.628;17.852;2022-12-24T06:59:44;2.17;;;1.80;;
12122;SDS011;6125;59.628;17.852;2022-12-24T07:02:12;3.87;;;1.40;;
12122;SDS011;6125;59.628;17.852;2022-12-24T07:04:42;2.93;;;1.60;;
12122;SDS011;6125;59.628;17.852;2022-12-24T07:07:11;2.20;;;1.53;;
12122;SDS011;6125;59.628;17.852;2022-12-24T07:09:40;2.37;;;0.97;;
12122;SDS011;6125;59.628;17.852;2022-12-24T07:12:07;1.30;;;1.20;;
12122;SDS011;6125;59.628;17.852;2022-12-24T07:14:34;2.53;;;1.57;;
12122;SDS011;6125;59.628;17.852;2022-12-24T07:17:03;3.97;;;2.00;;
12122;SDS011;6125;59.628;17.852;2022-12-24T07:19:30;2.47;;;1.80;;
12122;SDS011;6125;59.628;17.852;2022-12-24T07:21:58;2.77;;;1.73;;
12122;SDS011;6125;59.628;17.852;2022-12-24T07:24:25;1.10;;;1.10;;
12122;SDS011;6125;59.628;17.852;2022-12-24T07:26:52;1.47;;;1.23;;
12122;SDS011;6125;59.628;17.852;2022-12-24T07:29:19;2.63;;;1.80;;
12122;SDS011;6125;59.628;17.852;2022-12-24T07:31:47;2.63;;;1.80;;
12122;SDS011;6125;59.628;17.852;2022-12-24T07:34:16;2.90;;;1.83;;
12122;SDS011;6125;59.628;17.852;2022-12-24T07:36:45;3.00;;;1.53;;
12122;SDS011;6125;59.628;17.852;2022-12-24T07:39:15;3.77;;;1.67;;
12122;SDS011;6125;59.628;17.852;2022-12-24T07:41:44;2.00;;;1.47;;
12122;SDS011;6125;59.628;17.852;2022-12-24T07:44:14;1.90;;;1.70;;
12122;SDS011;6125;59.628;17.852;2022-12-24T07:46:43;1.93;;;1.70;;
12122;SDS011;6125;59.628;17.852;2022-12-24T07:49:10;2.47;;;1.70;;
12122;SDS011;6125;59.628;17.852;2022-12-24T07:51:39;2.50;;;1.50;;
12122;SDS011;6125;59.628;17.852;2022-12-24T07:54:09;6.00;;;1.50;;
12122;SDS011;6125;59.628;17.852;2022-12-24T07:56:39;1.80;;;1.50;;
12122;SDS011;6125;59.628;17.852;2022-12-24T07:59:07;3.70;;;1.63;;
12122;SDS011;6125;59.628;17.852;2022-12-24T08:01:42;6.60;;;3.47;;
12122;SDS011;6125;59.628;17.852;2022-12-24T08:04:09;7.90;;;4.77;;
12122;SDS011;6125;59.628;17.852;2022-12-24T08:06:41;4.50;;;3.00;;
12122;SDS011;6125;59.628;17.852;2022-12-24T08:09:09;3.50;;;2.50;;
12122;SDS011;6125;59.628;17.852;2022-12-24T08:11:43;5.03;;;2.33;;
12122;SDS011;6125;59.628;17.852;2022-12-24T08:14:10;7.80;;;3.27;;
12122;SDS011;6125;59.628;17.852;2022-12-24T08:16:37;5.30;;;3.47;;
12122;SDS011;6125;59.628;17.852;2022-12-24T08:19:04;5.33;;;3.40;;
12122;SDS011;6125;59.628;17.852;2022-12-24T08:21:32;6.00;;;3.03;;
12122;SDS011;6125;59.628;17.852;2022-12-24T08:24:00;4.70;;;2.67;;
12122;SDS011;6125;59.628;17.852;2022-12-24T08:26:27;8.90;;;3.40;;
12122;SDS011;6125;59.628;17.852;2022-12-24T08:28:55;6.37;;;3.40;;
12122;SDS011;6125;59.628;17.852;2022-12-24T08:31:22;4.90;;;2.70;;
12122;SDS011;6125;59.628;17.852;2022-12-24T08:33:49;10.63;;;3.20;;
12122;SDS011;6125;59.628;17.852;2022-12-24T08:36:16;5.23;;;3.17;;
12122;SDS011;6125;59.628;17.852;2022-12-24T08:38:43;4.77;;;3.27;;
12122;SDS011;6125;59.628;17.852;2022-12-24T08:41:12;4.50;;;2.30;;
12122;SDS011;6125;59.628;17.852;2022-12-24T08:43:41;4.00;;;2.33;;
12122;SDS011;6125;59.628;17.852;2022-12-24T08:46:09;5.67;;;2.90;;
12122;SDS011;6125;59.628;17.852;2022-12-24T08:48:36;5.37;;;2.63;;
12122;SDS011;6125;59.628;17.852;2022-12-24T08:51:05;3.23;;;2.40;;
12122;SDS011;6125;59.628;17.852;2022-12-24T08:53:34;4.57;;;2.67;;
12122;SDS011;6125;59.628;17.852;2022-12-24T08:56:01;8.20;;;3.37;;
12122;SDS011;6125;59.628;17.852;2022-12-24T08:58:30;7.80;;;4.23;;
12122;SDS011;6125;59.628;17.852;2022-12-24T09:01:08;5.27;;;2.70;;
12122;SDS011;6125;59.628;17.852;2022-12-24T09:03:36;9.57;;;3.90;;
12122;SDS011;6125;59.628;17.852;2022-12-24T09:06:06;6.70;;;3.63;;
12122;SDS011;6125;59.628;17.852;2022-12-24T09:08:36;8.40;;;3.57;;
12122;SDS011;6125;59.628;17.852;2022-12-24T09:11:04;7.57;;;3.90;;
12122;SDS011;6125;59.628;17.852;2022-12-24T09:13:34;7.27;;;3.20;;
12122;SDS011;6125;59.628;17.852;2022-12-24T09:16:04;4.93;;;2.57;;
12122;SDS011;6125;59.628;17.852;2022-12-24T09:18:31;4.73;;;2.27;;
12122;SDS011;6125;59.628;17.852;2022-12-24T09:20:59;5.60;;;2.47;;
12122;SDS011;6125;59.628;17.852;2022-12-24T09:23:27;3.40;;;2.07;;
12122;SDS011;6125;59.628;17.852;2022-12-24T09:25:55;5.00;;;2.10;;
12122;SDS011;6125;59.628;17.852;2022-12-24T09:28:25;3.13;;;2.00;;
12122;SDS011;6125;59.628;17.852;2022-12-24T09:30:57;4.27;;;2.30;;
12122;SDS011;6125;59.628;17.852;2022-12-24T09:33:28;7.03;;;2.00;;
12122;SDS011;6125;59.628;17.852;2022-12-24T09:35:57;4.77;;;2.03;;
12122;SDS011;6125;59.628;17.852;2022-12-24T09:38:24;5.63;;;2.00;;
12122;SDS011;6125;59.628;17.852;2022-12-24T09:40:52;5.23;;;2.33;;
12122;SDS011;6125;59.628;17.852;2022-12-24T09:43:21;10.47;;;2.57;;
12122;SDS011;6125;59.628;17.852;2022-12-24T09:45:54;5.37;;;2.50;;
12122;SDS011;6125;59.628;17.852;2022-12-24T09:48:32;10.00;;;5.13;;
12122;SDS011;6125;59.628;17.852;2022-12-24T09:51:02;13.17;;;5.83;;
12122;SDS011;6125;59.628;17.852;2022-12-24T09:53:38;15.40;;;6.77;;
12122;SDS011;6125;59.628;17.852;2022-12-24T09:56:11;8.53;;;3.20;;
12122;SDS011;6125;59.628;17.852;2022-12-24T09:58:43;6.47;;;2.80;;
12122;SDS011;6125;59.628;17.852;2022-12-24T10:01:16;2.97;;;2.03;;
12122;SDS011;6125;59.628;17.852;2022-12-24T10:03:44;7.10;;;3.53;;
12122;SDS011;6125;59.628;17.852;2022-12-24T10:06:14;2.80;;;2.00;;
12122;SDS011;6125;59.628;17.852;2022-12-24T10:08:51;3.53;;;2.30;;
12122;SDS011;6125;59.628;17.852;2022-12-24T10:11:29;5.27;;;2.53;;
12122;SDS011;6125;59.628;17.852;2022-12-24T10:14:24;2.13;;;1.77;;
12122;SDS011;6125;59.628;17.852;2022-12-24T10:17:01;1.47;;;1.27;;
12122;SDS011;6125;59.628;17.852;2022-12-24T10:19:39;1.93;;;1.53;;
12122;SDS011;6125;59.628;17.852;2022-12-24T10:22:25;2.20;;;1.60;;
12122;SDS011;6125;59.628;17.852;2022-12-24T10:24:59;2.83;;;1.90;;
12122;SDS011;6125;59.628;17.852;2022-12-24T10:27:36;2.10;;;1.53;;
12122;SDS011;6125;59.628;17.852;2022-12-24T10:30:12;2.07;;;1.57;;
12122;SDS011;6125;59.628;17.852;2022-12-24T10:32:42;1.83;;;1.40;;
12122;SDS011;6125;59.628;17.852;2022-12-24T10:35:18;1.50;;;1.40;;
12122;SDS011;6125;59.628;17.852;2022-12-24T10:37:51;1.57;;;1.30;;
12122;SDS011;6125;59.628;17.852;2022-12-24T10:40:23;1.57;;;1.47;;
12122;SDS011;6125;59.628;17.852;2022-12-24T10:42:55;2.37;;;1.07;;
12122;SDS011;6125;59.628;17.852;2022-12-24T10:45:22;2.27;;;1.60;;
12122;SDS011;6125;59.628;17.852;2022-12-24T10:47:53;3.83;;;1.30;;
12122;SDS011;6125;59.628;17.852;2022-12-24T10:50:29;3.00;;;1.43;;
12122;SDS011;6125;59.628;17.852;2022-12-24T10:53:03;2.27;;;1.87;;
12122;SDS011;6125;59.628;17.852;2022-12-24T10:55:44;6.67;;;3.83;;
12122;SDS011;6125;59.628;17.852;2022-12-24T10:58:14;5.97;;;4.00;;
12122;SDS011;6125;59.628;17.852;2022-12-24T11:00:47;4.97;;;3.40;;
12122;SDS011;6125;59.628;17.852;2022-12-24T11:03:24;5.90;;;3.77;;
12122;SDS011;6125;59.628;17.852;2022-12-24T11:06:05;6.47;;;4.00;;
12122;SDS011;6125;59.628;17.852;2022-12-24T11:08:34;5.90;;;2.90;;
12122;SDS011;6125;59.628;17.852;2022-12-24T11:11:03;4.03;;;2.30;;
12122;SDS011;6125;59.628;17.852;2022-12-24T11:13:35;4.00;;;2.27;;
12122;SDS011;6125;59.628;17.852;2022-12-24T11:16:09;3.90;;;2.10;;
12122;SDS011;6125;59.628;17.852;2022-12-24T11:18:47;3.03;;;1.70;;
12122;SDS011;6125;59.628;17.852;2022-12-24T11:21:21;2.70;;;1.70;;
12122;SDS011;6125;59.628;17.852;2022-12-24T11:23:52;2.37;;;1.83;;
12122;SDS011;6125;59.628;17.852;2022-12-24T11:26:22;2.83;;;1.67;;
12122;SDS011;6125;59.628;17.852;2022-12-24T11:29:05;1.67;;;1.33;;
12122;SDS011;6125;59.628;17.852;2022-12-24T11:31:39;3.87;;;2.60;;
12122;SDS011;6125;59.628;17.852;2022-12-24T11:34:27;7.90;;;4.70;;
12122;SDS011;6125;59.628;17.852;2022-12-24T11:37:05;6.23;;;3.53;;
12122;SDS011;6125;59.628;17.852;2022-12-24T11:39:38;5.47;;;3.70;;
12122;SDS011;6125;59.628;17.852;2022-12-24T11:42:22;6.63;;;3.83;;
12122;SDS011;6125;59.628;17.852;2022-12-24T11:44:53;5.13;;;3.77;;
12122;SDS011;6125;59.628;17.852;2022-12-24T11:47:32;6.67;;;3.80;;
12122;SDS011;6125;59.628;17.852;2022-12-24T11:50:22;7.00;;;3.93;;
12122;SDS011;6125;59.628;17.852;2022-12-24T11:52:58;6.83;;;4.07;;
12122;SDS011;6125;59.628;17.852;2022-12-24T11:55:39;5.80;;;3.47;;
12122;SDS011;6125;59.628;17.852;2022-12-24T11:58:13;9.20;;;4.57;;
12122;SDS011;6125;59.628;17.852;2022-12-24T12:00:50;5.20;;;3.37;;
12122;SDS011;6125;59.628;17.852;2022-12-24T12:03:26;5.37;;;3.03;;
12122;SDS011;6125;59.628;17.852;2022-12-24T12:05:58;4.47;;;2.97;;
12122;SDS011;6125;59.628;17.852;2022-12-24T12:08:31;8.37;;;3.97;;
12122;SDS011;6125;59.628;17.852;2022-12-24T12:11:10;9.27;;;5.07;;
12122;SDS011;6125;59.628;17.852;2022-12-24T12:13:39;8.87;;;4.90;;
12122;SDS011;6125;59.628;17.852;2022-12-24T12:16:13;10.13;;;5.97;;
12122;SDS011;6125;59.628;17.852;2022-12-24T12:18:51;13.87;;;7.33;;
12122;SDS011;6125;59.628;17.852;2022-12-24T12:21:25;14.20;;;5.57;;
12122;SDS011;6125;59.628;17.852;2022-12-24T12:24:02;4.87;;;3.30;;
12122;SDS011;6125;59.628;17.852;2022-12-24T12:26:32;4.87;;;2.73;;
12122;SDS011;6125;59.628;17.852;2022-12-24T12:29:00;7.33;;;3.17;;
12122;SDS011;6125;59.628;17.852;2022-12-24T12:31:33;7.97;;;5.70;;
12122;SDS011;6125;59.628;17.852;2022-12-24T12:34:15;5.47;;;3.70;;
12122;SDS011;6125;59.628;17.852;2022-12-24T12:36:52;7.47;;;4.00;;
12122;SDS011;6125;59.628;17.852;2022-12-24T12:39:22;6.63;;;3.50;;
12122;SDS011;6125;59.628;17.852;2022-12-24T12:41:52;7.87;;;3.30;;
12122;SDS011;6125;59.628;17.852;2022-12-24T12:44:34;8.57;;;4.50;;
12122;SDS011;6125;59.628;17.852;2022-12-24T12:47:19;8.17;;;4.57;;
12122;SDS011;6125;59.628;17.852;2022-12-24T12:50:13;9.57;;;4.33;;
12122;SDS011;6125;59.628;17.852;2022-12-24T12:52:53;15.83;;;6.97;;
12122;SDS011;6125;59.628;17.852;2022-12-24T12:55:33;17.13;;;7.40;;
12122;SDS011;6125;59.628;17.852;2022-12-24T12:58:09;15.83;;;6.90;;
12122;SDS011;6125;59.628;17.852;2022-12-24T13:00:41;14.03;;;6.43;;
12122;SDS011;6125;59.628;17.852;2022-12-24T13:03:20;14.27;;;7.10;;
12122;SDS011;6125;59.628;17.852;2022-12-24T13:06:20;18.30;;;6.07;;
12122;SDS011;6125;59.628;17.852;2022-12-24T13:12:18;11.70;;;6.33;;
12122;SDS011;6125;59.628;17.852;2022-12-24T13:14:57;10.87;;;4.60;;
12122;SDS011;6125;59.628;17.852;2022-12-24T13:17:47;10.03;;;4.87;;
12122;SDS011;6125;59.628;17.852;2022-12-24T13:20:26;9.23;;;4.50;;
12122;SDS011;6125;59.628;17.852;2022-12-24T13:22:57;7.97;;;4.90;;
12122;SDS011;6125;59.628;17.852;2022-12-24T13:25:29;10.73;;;7.80;;
12122;SDS011;6125;59.628;17.852;2022-12-24T13:28:13;11.23;;;6.40;;
12122;SDS011;6125;59.628;17.852;2022-12-24T13:30:42;7.47;;;6.23;;
12122;SDS011;6125;59.628;17.852;2022-12-24T13:33:10;12.33;;;6.50;;
12122;SDS011;6125;59.628;17.852;2022-12-24T13:44:20;10.97;;;7.13;;
12122;SDS011;6125;59.628;17.852;2022-12-24T13:46:53;12.30;;;6.87;;
12122;SDS011;6125;59.628;17.852;2022-12-24T13:49:27;12.03;;;5.93;;
12122;SDS011;6125;59.628;17.852;2022-12-24T13:55:05;12.80;;;5.40;;
12122;SDS011;6125;59.628;17.852;2022-12-24T13:57:44;9.37;;;5.20;;
12122;SDS011;6125;59.628;17.852;2022-12-24T14:00:28;9.53;;;5.03;;
12122;SDS011;6125;59.628;17.852;2022-12-24T14:03:15;6.73;;;4.70;;
12122;SDS011;6125;59.628;17.852;2022-12-24T14:05:54;7.30;;;4.63;;
12122;SDS011;6125;59.628;17.852;2022-12-24T14:08:27;9.97;;;5.07;;
12122;SDS011;6125;59.628;17.852;2022-12-24T14:11:04;7.97;;;4.83;;
12122;SDS011;6125;59.628;17.852;2022-12-24T14:14:00;6.50;;;4.13;;
12122;SDS011;6125;59.628;17.852;2022-12-24T14:16:44;9.07;;;4.87;;
12122;SDS011;6125;59.628;17.852;2022-12-24T14:19:15;10.33;;;5.77;;
12122;SDS011;6125;59.628;17.852;2022-12-24T14:21:48;46.67;;;23.50;;
12122;SDS011;6125;59.628;17.852;2022-12-24T14:24:22;17.00;;;9.77;;
12122;SDS011;6125;59.628;17.852;2022-12-24T14:26:52;30.93;;;15.43;;
12122;SDS011;6125;59.628;17.852;2022-12-24T14:29:31;12.07;;;7.37;;
12122;SDS011;6125;59.628;17.852;2022-12-24T14:32:11;16.73;;;7.70;;
12122;SDS011;6125;59.628;17.852;2022-12-24T14:34:43;13.90;;;7.07;;
12122;SDS011;6125;59.628;17.852;2022-12-24T14:37:13;10.63;;;6.43;;
12122;SDS011;6125;59.628;17.852;2022-12-24T14:39:42;12.53;;;7.00;;
12122;SDS011;6125;59.628;17.852;2022-12-24T14:42:17;11.90;;;7.73;;
12122;SDS011;6125;59.628;17.852;2022-12-24T14:44:58;11.57;;;7.00;;
12122;SDS011;6125;59.628;17.852;2022-12-24T14:47:34;11.07;;;6.50;;
12122;SDS011;6125;59.628;17.852;2022-12-24T14:50:20;13.40;;;7.90;;
12122;SDS011;6125;59.628;17.852;2022-12-24T14:53:01;20.37;;;12.50;;
12122;SDS011;6125;59.628;17.852;2022-12-24T14:55:34;18.70;;;12.43;;
12122;SDS011;6125;59.628;17.852;2022-12-24T14:58:18;15.50;;;10.83;;
12122;SDS011;6125;59.628;17.852;2022-12-24T15:00:49;20.73;;;12.97;;
12122;SDS011;6125;59.628;17.852;2022-12-24T15:03:18;17.70;;;11.83;;
12122;SDS011;6125;59.628;17.852;2022-12-24T15:05:57;19.40;;;12.33;;
12122;SDS011;6125;59.628;17.852;2022-12-24T15:08:30;20.83;;;12.27;;
12122;SDS011;6125;59.628;17.852;2022-12-24T15:11:02;23.50;;;11.50;;
12122;SDS011;6125;59.628;17.852;2022-12-24T15:13:32;22.87;;;12.10;;
12122;SDS011;6125;59.628;17.852;2022-12-24T15:16:03;19.07;;;13.03;;
12122;SDS011;6125;59.628;17.852;2022-12-24T15:18:34;19.63;;;11.40;;
12122;SDS011;6125;59.628;17.852;2022-12-24T15:21:04;18.47;;;12.47;;
12122;SDS011;6125;59.628;17.852;2022-12-24T15:23:36;22.43;;;12.70;;
12122;SDS011;6125;59.628;17.852;2022-12-24T15:26:19;13.97;;;8.13;;
12122;SDS011;6125;59.628;17.852;2022-12-24T15:28:50;12.80;;;7.40;;
12122;SDS011;6125;59.628;17.852;2022-12-24T15:31:20;14.70;;;8.60;;
12122;SDS011;6125;59.628;17.852;2022-12-24T15:33:53;17.70;;;12.27;;